Strona główna
METAR-TAF:

METAR-TAF

Lotnisko :

Port lotniczy Połąga

Połąga, Litwa

Szerokość geograficzna: 55-55-12N, Długość geograficzna: 021-03E, wysokość: 10 m

Aktualna obserwacja pogody

Raport powstał 5 minut temu, godzina 07:20 UTC
Wiatr 2 kt z kierunków zmiennych
Temperatura 15°C
Wilgotność 77%
Ciśnienie 1022 hPa
Widzialność 10 km lub więcej
Brak chmur poniżej 1500 m i brak chmur cumulonimbus

METAR: EYPA 230720Z VRB02KT CAVOK 15/11 Q1022

czas: 10:25 (07:25 UTC)

Prognoza

Raport powstał 2 godziny i 24 minut temu, godzina 05:01 UTC
Prognoza ważna od 23 godzina 06 UTC do 24 godzina 06 UTC
Wiatr 12 kt od północny zachód
Widzialność: 9000 m
Rozproszone chmury na wysokości 4500 ft
Przejściowo
od 23 godzina 10 UTC do 23 godzina 15 UTC
Przerywane chmury na wysokości 4000 ft, Cumulonimbus.
Stopniowe zmiany
od 23 godzina 16 UTC do 23 godzina 18 UTC
Wiatr 2 kt z kierunków zmiennych

TAF: EYPA 230501Z 2306/2406 32012KT 9000 SCT045 TEMPO 2310/2315 BKN040CB BECMG 2316/2318 VRB02KT

Obserwacja i prognoza pogody dla ponad 4000 lotnisk (raport METAR i TAF).

Dostępne stacje oznaczono żółtymi i czerwonymi punktami na mapie.

Najedź kursorem aby zobaczyć nazwę stacji.

Kliknij aby zobaczyć obserwacje i prognozy pogody.

Aby zmienić mapę: kliknij na zielony przycisk z czarnym krzyżykiem, aby powiększyć; na zielony przycisk z myślnikiem, aby pomniejszyć; na zielone strzałki, aby przejść do map sąsiednich.


METAR-TAF: